Terminal Aerodrome Forecast
Issued by NWS Cleveland, OH

Home | Current Version | Previous Version | Graphics & Text | Print | Product List | Glossary On
Versions: 1 2 3 4 5 6 7 8 9 10 11 12 13 14
969
FTUS41 KCLE 202327
TAFYNG
TAF
KYNG 202327Z 2100/2124 29004KT P6SM SCT040
     FM210600 VRB03KT P6SM SCT090
     FM210900 00000KT 5SM BR SCT120
     FM211300 32005KT P6SM SCT050
     FM212200 33006KT P6SM SCT200=

USA.gov is the U.S. government's official web portal to all federal, state and local government web resources and services.